Time;durP1;ratioP1;P1;durP2;ratioP2;P2;SDS_P1;SDS_P2;PMS_P1;PMS_P2;Temp;Humidity;BMP_temperature;BMP_pressure;BME280_temperature;BME280_humidity;BME280_pressure;Samples;Min_cycle;Max_cycle;Signal;HPM_P1;HPM_P2
2023/04/04 00:01:32;;;;;;;3.95;2.00;;;1.70;68.10;;;;;;5076587;28;20031;-69
2023/04/04 00:03:57;;;;;;;4.00;1.65;;;1.70;67.60;;;;;;5094402;28;20111;-69
2023/04/04 00:06:23;;;;;;;3.65;1.60;;;1.60;67.40;;;;;;5094489;28;20031;-69
2023/04/04 00:08:49;;;;;;;3.72;1.70;;;1.60;67.40;;;;;;5075982;28;20119;-69
2023/04/04 00:11:15;;;;;;;4.13;1.95;;;1.50;68.30;;;;;;5075850;28;20032;-69
2023/04/04 00:13:40;;;;;;;4.00;1.80;;;1.50;67.70;;;;;;5075957;28;20055;-69
2023/04/04 00:16:06;;;;;;;3.55;1.63;;;1.40;68.00;;;;;;5075907;28;20035;-69
2023/04/04 00:18:32;;;;;;;6.00;1.70;;;1.40;68.40;;;;;;5075889;28;20028;-69
2023/04/04 00:20:58;;;;;;;3.85;1.60;;;1.30;68.70;;;;;;5093699;28;20520;-69
2023/04/04 00:23:24;;;;;;;4.88;1.58;;;1.30;68.70;;;;;;5093837;28;20035;-69
2023/04/04 00:25:51;;;;;;;2.65;1.80;;;1.30;69.90;;;;;;5097440;28;20074;-69
2023/04/04 00:28:18;;;;;;;4.63;2.10;;;1.20;70.80;;;;;;5098043;28;20024;-69
2023/04/04 00:30:44;;;;;;;4.45;1.98;;;1.20;71.20;;;;;;5080348;28;20455;-69
2023/04/04 00:33:09;;;;;;;4.63;2.08;;;1.20;72.60;;;;;;5098548;28;20028;-69
2023/04/04 00:35:35;;;;;;;4.38;2.22;;;1.10;73.20;;;;;;5080478;28;20059;-69
2023/04/04 00:38:01;;;;;;;3.55;1.90;;;1.10;73.70;;;;;;5079794;28;20119;-69
2023/04/04 00:40:27;;;;;;;3.38;1.67;;;1.00;74.00;;;;;;5079921;28;20051;-69
2023/04/04 00:42:53;;;;;;;4.22;2.30;;;1.10;74.60;;;;;;5079644;28;20020;-69
2023/04/04 00:45:19;;;;;;;3.80;1.92;;;1.10;75.30;;;;;;5079397;28;20391;-69
2023/04/04 00:47:45;;;;;;;3.80;2.03;;;1.00;76.10;;;;;;5079390;28;20028;-69
2023/04/04 00:50:11;;;;;;;3.60;2.13;;;1.00;76.80;;;;;;5097641;28;20422;-69
2023/04/04 00:52:37;;;;;;;3.53;1.90;;;0.90;78.40;;;;;;5097272;28;20036;-70
2023/04/04 00:55:03;;;;;;;5.40;2.03;;;0.90;78.90;;;;;;5079198;28;20081;-69
2023/04/04 00:57:29;;;;;;;4.63;2.00;;;0.90;79.50;;;;;;5078998;28;20098;-69
2023/04/04 00:59:57;;;;;;;3.40;2.33;;;0.90;79.80;;;;;;5097487;28;20026;-69
2023/04/04 01:02:25;;;;;;;5.82;2.40;;;0.80;80.30;;;;;;5097893;28;20020;-70
2023/04/04 01:04:51;;;;;;;5.20;2.10;;;0.80;82.60;;;;;;5078987;28;20456;-69
2023/04/04 01:07:17;;;;;;;4.68;2.33;;;0.80;83.00;;;;;;5097670;28;20107;-69
2023/04/04 01:09:43;;;;;;;3.70;1.92;;;0.70;83.20;;;;;;5079082;28;20031;-69
2023/04/04 01:12:09;;;;;;;5.38;2.20;;;0.70;83.70;;;;;;5078674;28;20024;-69
2023/04/04 01:14:35;;;;;;;5.05;1.77;;;0.70;85.60;;;;;;5097337;28;20028;-69
2023/04/04 01:17:02;;;;;;;4.18;2.03;;;0.70;86.10;;;;;;5079289;28;20471;-69
2023/04/04 01:19:45;;;;;;;3.58;2.10;;;0.70;86.60;;;;;;5078934;28;20361;-69
2023/04/04 01:22:13;;;;;;;2.60;1.58;;;0.70;86.90;;;;;;5078879;28;20031;-71
2023/04/04 01:24:42;;;;;;;2.53;1.70;;;0.80;87.40;;;;;;5079080;28;20032;-69
2023/04/04 01:27:07;;;;;;;3.35;1.90;;;0.80;87.50;;;;;;5097344;28;20024;-69
2023/04/04 01:29:33;;;;;;;3.90;2.05;;;0.80;86.20;;;;;;5080191;28;20035;-69
2023/04/04 01:31:58;;;;;;;5.53;2.13;;;0.90;87.80;;;;;;5080770;28;20414;-72
2023/04/04 01:34:34;;;;;;;4.63;1.98;;;0.90;90.10;;;;;;5080524;28;20456;-70
2023/04/04 01:37:11;;;;;;;4.38;2.00;;;1.00;89.20;;;;;;5078440;28;20021;-69
2023/04/04 01:39:49;;;;;;;4.90;1.98;;;1.00;86.00;;;;;;5079381;28;20418;-69
2023/04/04 01:42:15;;;;;;;5.22;2.25;;;1.10;86.40;;;;;;5078515;28;20060;-69
2023/04/04 01:44:41;;;;;;;3.97;1.85;;;1.10;85.40;;;;;;5079046;28;20078;-69
2023/04/04 01:47:07;;;;;;;3.75;1.77;;;1.20;85.20;;;;;;5096882;28;20103;-69
2023/04/04 01:49:33;;;;;;;3.47;2.10;;;1.20;84.50;;;;;;5078754;28;20063;-69
2023/04/04 01:51:59;;;;;;;3.35;1.90;;;1.20;81.30;;;;;;5096448;28;20443;-69
2023/04/04 01:54:27;;;;;;;2.35;1.80;;;1.20;81.70;;;;;;5078053;28;20488;-69
2023/04/04 01:56:53;;;;;;;3.65;1.67;;;1.20;81.10;;;;;;5078254;28;20024;-69
2023/04/04 01:59:18;;;;;;;7.32;2.17;;;1.20;81.30;;;;;;5077959;28;20027;-69
2023/04/04 02:01:44;;;;;;;2.97;1.88;;;1.20;82.40;;;;;;5096470;28;20024;-69
2023/04/04 02:04:11;;;;;;;3.33;1.55;;;1.20;82.10;;;;;;5096603;28;20031;-69
2023/04/04 02:06:39;;;;;;;3.85;1.90;;;1.20;83.20;;;;;;5077896;28;20035;-69
2023/04/04 02:09:05;;;;;;;5.22;2.15;;;1.20;82.60;;;;;;5096400;28;20399;-69
2023/04/04 02:11:31;;;;;;;3.13;2.05;;;1.20;82.80;;;;;;5077740;28;20030;-69
2023/04/04 02:13:57;;;;;;;4.32;1.98;;;1.20;80.30;;;;;;5078082;28;20032;-69
2023/04/04 02:16:23;;;;;;;3.33;2.05;;;1.20;80.90;;;;;;5078374;28;20463;-69
2023/04/04 02:18:48;;;;;;;3.65;2.00;;;1.20;81.10;;;;;;5077950;28;20028;-69
2023/04/04 02:21:14;;;;;;;5.40;2.22;;;1.10;79.90;;;;;;5095662;28;20475;-69
2023/04/04 02:23:40;;;;;;;3.40;2.03;;;1.10;79.80;;;;;;5077782;28;20123;-69
2023/04/04 02:26:06;;;;;;;5.70;3.55;;;1.10;79.70;;;;;;5095985;28;20024;-70
2023/04/04 02:28:32;;;;;;;2.97;1.50;;;1.10;79.90;;;;;;5095554;28;20464;-69
2023/04/04 02:31:01;;;;;;;6.30;2.30;;;1.10;79.70;;;;;;5096077;28;20058;-69
2023/04/04 02:33:27;;;;;;;3.78;1.92;;;1.10;80.10;;;;;;5077474;28;20057;-70
2023/04/04 02:35:57;;;;;;;1.88;1.55;;;1.10;79.40;;;;;;5095634;28;20114;-69
2023/04/04 02:38:24;;;;;;;3.38;2.15;;;1.10;79.90;;;;;;5077463;28;20122;-69
2023/04/04 02:40:50;;;;;;;4.13;1.95;;;1.10;80.20;;;;;;5077419;28;20029;-69
2023/04/04 02:43:15;;;;;;;3.40;2.03;;;1.10;79.80;;;;;;5077871;28;20474;-69
2023/04/04 02:45:41;;;;;;;5.25;1.67;;;1.10;80.90;;;;;;5077247;28;20423;-70
2023/04/04 02:48:07;;;;;;;3.22;1.65;;;1.00;81.10;;;;;;5077019;28;20020;-69
2023/04/04 02:50:33;;;;;;;3.60;1.60;;;1.00;81.60;;;;;;5095757;28;20028;-69
2023/04/04 02:53:02;;;;;;;2.58;2.20;;;1.00;82.00;;;;;;5095353;28;20040;-69
2023/04/04 02:55:28;;;;;;;5.10;2.10;;;0.90;82.30;;;;;;5095002;28;20027;-69
2023/04/04 02:57:53;;;;;;;3.65;2.10;;;0.90;82.50;;;;;;5095205;28;20456;-69
2023/04/04 03:00:19;;;;;;;9.68;2.88;;;0.80;82.40;;;;;;5077264;28;20144;-69
2023/04/04 03:02:45;;;;;;;5.50;2.20;;;0.80;83.00;;;;;;5076884;28;20539;-69
2023/04/04 03:05:11;;;;;;;4.05;1.73;;;0.70;83.10;;;;;;5076751;28;20040;-69
2023/04/04 03:07:37;;;;;;;2.03;1.83;;;0.60;82.60;;;;;;5076831;28;20058;-69
2023/04/04 03:10:03;;;;;;;4.53;1.65;;;0.60;84.00;;;;;;5076843;28;20035;-69
2023/04/04 03:12:28;;;;;;;5.03;2.60;;;0.50;85.40;;;;;;5076733;28;20028;-70
2023/04/04 03:14:54;;;;;;;5.10;1.83;;;0.50;86.00;;;;;;5094862;28;20437;-69
2023/04/04 03:17:20;;;;;;;2.72;1.80;;;0.40;86.40;;;;;;5094740;28;20024;-70
2023/04/04 03:19:46;;;;;;;1.88;1.42;;;0.30;88.60;;;;;;5095013;28;20020;-69
2023/04/04 03:22:11;;;;;;;9.95;2.40;;;0.20;89.60;;;;;;5094990;28;20031;-69
2023/04/04 03:24:37;;;;;;;2.72;1.92;;;0.10;90.30;;;;;;5076519;28;20036;-69
2023/04/04 03:27:03;;;;;;;4.47;2.22;;;0.10;91.10;;;;;;5094440;28;20028;-69
2023/04/04 03:29:28;;;;;;;3.05;2.13;;;0.00;91.50;;;;;;5094626;28;20035;-70
2023/04/04 03:31:54;;;;;;;4.35;1.98;;;0.00;91.80;;;;;;5076504;28;20070;-69
2023/04/04 03:34:22;;;;;;;4.03;1.88;;;-0.10;92.50;;;;;;5094848;28;20514;-69
2023/04/04 03:36:47;;;;;;;4.90;1.80;;;-0.10;93.20;;;;;;5094539;28;20107;-69
2023/04/04 03:39:13;;;;;;;5.93;2.20;;;-0.10;93.80;;;;;;5076366;28;20056;-69
2023/04/04 03:41:39;;;;;;;3.15;1.75;;;-0.10;94.30;;;;;;5076290;28;20020;-69
2023/04/04 03:44:05;;;;;;;6.75;1.85;;;-0.20;93.70;;;;;;5076179;28;20063;-69
2023/04/04 03:46:31;;;;;;;3.25;1.65;;;-0.20;94.90;;;;;;5076268;28;20059;-69
2023/04/04 03:48:58;;;;;;;2.97;2.05;;;-0.20;94.70;;;;;;5094089;28;20111;-69
2023/04/04 03:51:27;;;;;;;3.25;2.28;;;-0.30;95.50;;;;;;5076186;28;20085;-69
2023/04/04 03:53:53;;;;;;;4.30;2.40;;;-0.30;96.10;;;;;;5094110;28;20051;-69
2023/04/04 03:56:18;;;;;;;12.52;2.60;;;-0.30;96.40;;;;;;5094426;28;20073;-69
2023/04/04 03:58:44;;;;;;;4.07;1.95;;;-0.30;94.70;;;;;;5075095;28;20032;-69
2023/04/04 04:01:10;;;;;;;4.15;2.20;;;-0.30;94.30;;;;;;5093755;28;20030;-69
2023/04/04 04:03:36;;;;;;;3.53;2.05;;;-0.30;95.40;;;;;;5075877;28;20548;-69
2023/04/04 04:06:02;;;;;;;4.13;2.10;;;-0.30;95.30;;;;;;5076290;28;20452;-70
2023/04/04 04:08:28;;;;;;;2.55;1.90;;;-0.40;95.90;;;;;;5075666;28;20032;-69
2023/04/04 04:10:54;;;;;;;4.05;1.73;;;-0.40;94.60;;;;;;5094012;28;20024;-69
2023/04/04 04:13:20;;;;;;;4.75;2.55;;;-0.40;93.90;;;;;;5076198;28;20028;-69
2023/04/04 04:15:46;;;;;;;3.95;2.03;;;-0.40;94.10;;;;;;5093588;28;20024;-69
2023/04/04 04:18:11;;;;;;;3.22;1.80;;;-0.40;94.30;;;;;;5075589;28;20054;-69
2023/04/04 04:20:37;;;;;;;6.18;2.35;;;-0.30;94.00;;;;;;5075836;28;20020;-69
2023/04/04 04:23:03;;;;;;;4.00;1.80;;;-0.30;93.60;;;;;;5075767;28;20024;-69
2023/04/04 04:25:28;;;;;;;2.67;1.80;;;-0.40;93.70;;;;;;5093813;28;20097;-69
2023/04/04 04:27:55;;;;;;;5.75;2.17;;;-0.10;93.30;;;;;;5093769;28;20034;-69
2023/04/04 04:30:22;;;;;;;2.30;1.58;;;-0.30;93.50;;;;;;5075726;28;20024;-69
2023/04/04 04:32:49;;;;;;;3.15;2.10;;;-0.30;94.00;;;;;;5075749;28;20499;-69
2023/04/04 04:35:15;;;;;;;4.57;1.90;;;-0.30;94.30;;;;;;5075780;28;20421;-69
2023/04/04 04:37:40;;;;;;;5.25;1.88;;;-0.40;94.70;;;;;;5075796;28;20122;-69
2023/04/04 04:40:07;;;;;;;4.63;1.83;;;-0.40;94.60;;;;;;5094744;28;20371;-69
2023/04/04 04:42:33;;;;;;;5.07;2.35;;;-0.50;94.70;;;;;;5076732;28;20032;-69
2023/04/04 04:44:58;;;;;;;5.85;2.22;;;-0.50;94.90;;;;;;5093829;28;20024;-69
2023/04/04 04:47:24;;;;;;;3.30;1.83;;;-0.40;95.10;;;;;;5075988;28;20032;-69
2023/04/04 04:49:50;;;;;;;8.40;2.15;;;-0.40;95.40;;;;;;5075560;28;20024;-70
2023/04/04 04:52:15;;;;;;;4.90;2.25;;;-0.50;95.50;;;;;;5085494;28;20400;-69
2023/04/04 04:54:42;;;;;;;3.58;1.88;;;-0.50;95.30;;;;;;5066365;28;20060;-69
2023/04/04 04:57:08;;;;;;;2.20;2.00;;;-0.20;95.50;;;;;;5066235;28;20431;-69
2023/04/04 04:59:34;;;;;;;4.03;2.17;;;-0.40;95.50;;;;;;5032258;28;20021;-69
2023/04/04 05:02:00;;;;;;;4.00;1.95;;;-0.40;95.60;;;;;;5033434;28;20473;-69
2023/04/04 05:04:26;;;;;;;4.63;2.08;;;-0.40;95.30;;;;;;5032054;28;20033;-69
2023/04/04 05:06:52;;;;;;;4.95;2.58;;;-0.30;95.40;;;;;;5033761;28;20421;-69
2023/04/04 05:09:18;;;;;;;3.30;1.45;;;-0.30;94.70;;;;;;5035558;28;20064;-69
2023/04/04 05:11:44;;;;;;;13.70;3.78;;;-0.30;94.00;;;;;;5071872;28;20208;-70
2023/04/04 05:14:09;;;;;;;3.45;2.13;;;-0.20;93.70;;;;;;5072230;28;20071;-70
2023/04/04 05:16:35;;;;;;;7.35;2.80;;;-0.10;94.00;;;;;;5057152;28;20052;-69
2023/04/04 05:19:01;;;;;;;3.78;2.00;;;-0.10;94.00;;;;;;5072179;28;20098;-69
2023/04/04 05:21:26;;;;;;;7.82;2.40;;;-0.10;93.20;;;;;;5057205;28;20111;-70
2023/04/04 05:23:52;;;;;;;5.25;2.10;;;1.30;93.80;;;;;;5072253;28;20105;-69
2023/04/04 05:26:18;;;;;;;3.55;2.00;;;1.30;94.10;;;;;;5056386;28;20024;-69
2023/04/04 05:28:43;;;;;;;4.03;2.40;;;0.10;93.60;;;;;;5056412;28;20032;-69
2023/04/04 05:31:09;;;;;;;3.65;1.70;;;0.30;94.10;;;;;;5057170;28;20108;-69
2023/04/04 05:33:35;;;;;;;3.28;2.03;;;0.40;93.80;;;;;;5056510;28;20029;-70
2023/04/04 05:36:01;;;;;;;6.18;2.00;;;0.60;92.00;;;;;;5072090;28;20428;-69
2023/04/04 05:38:27;;;;;;;5.15;1.90;;;1.60;91.90;;;;;;5071920;28;20025;-69
2023/04/04 05:40:53;;;;;;;6.90;2.03;;;0.90;91.50;;;;;;5071925;28;20028;-69
2023/04/04 05:43:19;;;;;;;2.53;1.73;;;2.40;90.80;;;;;;5056384;28;20453;-70
2023/04/04 05:45:44;;;;;;;4.55;2.60;;;1.20;90.00;;;;;;5069884;28;20041;-70
2023/04/04 05:48:10;;;;;;;6.55;2.60;;;1.40;88.90;;;;;;5036559;28;20108;-70
2023/04/04 05:50:36;;;;;;;3.58;1.63;;;1.90;86.90;;;;;;5035719;28;20025;-69
2023/04/04 05:53:03;;;;;;;6.55;2.28;;;1.70;83.70;;;;;;5044889;28;20053;-70
2023/04/04 05:55:29;;;;;;;3.35;1.55;;;2.30;83.80;;;;;;5077021;28;20029;-69
2023/04/04 05:57:55;;;;;;;2.83;1.55;;;1.90;81.50;;;;;;5058915;28;20120;-70
2023/04/04 06:00:21;;;;;;;5.03;1.40;;;2.00;80.20;;;;;;5058864;28;20602;-70
2023/04/04 06:02:47;;;;;;;2.30;1.30;;;2.30;79.60;;;;;;5076823;28;20099;-69
2023/04/04 06:05:13;;;;;;;2.17;1.50;;;2.50;76.10;;;;;;5076769;28;20028;-69
2023/04/04 06:07:39;;;;;;;3.92;1.30;;;2.70;76.30;;;;;;5058796;28;20031;-70
2023/04/04 06:10:06;;;;;;;3.17;1.35;;;2.80;74.20;;;;;;5058936;28;20035;-70
2023/04/04 06:12:31;;;;;;;1.90;1.20;;;3.00;72.90;;;;;;5076256;28;20021;-70
2023/04/04 06:14:57;;;;;;;2.75;1.30;;;3.10;71.30;;;;;;5060377;28;20123;-70
2023/04/04 06:17:23;;;;;;;1.77;0.95;;;3.40;71.20;;;;;;5060285;28;20029;-69
2023/04/04 06:19:49;;;;;;;2.05;1.00;;;4.00;69.10;;;;;;5060959;28;20024;-70
2023/04/04 06:22:16;;;;;;;2.13;1.20;;;4.00;65.90;;;;;;5076490;28;20051;-69
2023/04/04 06:24:42;;;;;;;5.03;1.40;;;4.20;64.90;;;;;;5077832;28;20458;-69
2023/04/04 06:27:08;;;;;;;2.63;1.30;;;4.00;63.60;;;;;;5059534;28;20052;-62
2023/04/04 06:29:34;;;;;;;2.65;0.77;;;4.40;66.20;;;;;;5058223;28;20025;-69
2023/04/04 06:31:59;;;;;;;3.90;1.35;;;4.40;65.90;;;;;;5075473;28;20025;-70
2023/04/04 06:34:25;;;;;;;2.28;0.88;;;4.40;62.90;;;;;;5060551;28;20032;-70
2023/04/04 06:36:51;;;;;;;4.65;1.30;;;4.70;61.20;;;;;;5079351;28;20411;-70
2023/04/04 06:39:17;;;;;;;2.60;0.90;;;4.90;59.80;;;;;;5060293;28;20515;-69
2023/04/04 06:41:42;;;;;;;2.58;1.20;;;4.50;59.70;;;;;;5076282;28;20103;-70
2023/04/04 06:44:08;;;;;;;1.75;1.10;;;4.20;60.70;;;;;;5075243;28;20595;-70
2023/04/04 06:46:36;;;;;;;2.58;1.10;;;4.00;60.40;;;;;;5056881;28;20412;-71
2023/04/04 06:49:02;;;;;;;3.63;1.23;;;4.30;60.90;;;;;;5076623;28;20025;-70
2023/04/04 06:51:28;;;;;;;4.10;1.50;;;5.70;60.00;;;;;;5058540;28;20036;-71
2023/04/04 06:53:55;;;;;;;1.80;0.80;;;5.10;58.30;;;;;;5076006;28;20133;-71
2023/04/04 06:56:22;;;;;;;1.80;0.80;;;5.10;58.00;;;;;;5079546;28;20030;-71
2023/04/04 06:58:48;;;;;;;1.77;0.73;;;5.70;57.50;;;;;;5079237;28;20031;-70
2023/04/04 07:01:14;;;;;;;1.85;0.90;;;5.50;56.60;;;;;;5080408;28;20020;-70
2023/04/04 07:03:40;;;;;;;2.75;1.20;;;5.80;56.20;;;;;;5062863;28;20035;-69
2023/04/04 07:06:05;;;;;;;2.47;0.95;;;5.90;55.70;;;;;;5080350;28;20460;-69
2023/04/04 07:08:32;;;;;;;1.92;0.75;;;5.40;55.60;;;;;;5099939;28;20035;-70
2023/04/04 07:10:59;;;;;;;5.15;1.20;;;5.40;56.50;;;;;;5097741;28;20384;-69
2023/04/04 07:13:25;;;;;;;2.63;1.33;;;5.50;56.00;;;;;;5098707;28;20089;-70
2023/04/04 07:15:51;;;;;;;3.40;1.20;;;5.60;55.00;;;;;;5079309;28;20028;-70
2023/04/04 07:18:17;;;;;;;1.90;1.70;;;5.50;54.60;;;;;;5097908;28;20104;-70
2023/04/04 07:20:45;;;;;;;2.28;0.88;;;5.50;55.50;;;;;;5098700;28;20035;-70
2023/04/04 07:23:11;;;;;;;2.33;1.05;;;5.30;54.70;;;;;;5080271;28;20044;-70
2023/04/04 07:25:39;;;;;;;0.88;0.82;;;5.50;55.50;;;;;;5079453;28;20046;-70
2023/04/04 07:28:05;;;;;;;4.22;1.08;;;5.70;55.00;;;;;;5096358;28;20071;-69
2023/04/04 07:30:32;;;;;;;1.92;1.05;;;5.80;53.90;;;;;;5099561;28;20024;-70
2023/04/04 07:33:01;;;;;;;2.83;1.45;;;5.70;54.20;;;;;;5081285;28;20119;-70
2023/04/04 07:35:27;;;;;;;1.85;1.02;;;5.70;55.20;;;;;;5096502;28;20050;-70
2023/04/04 07:37:53;;;;;;;5.20;1.40;;;5.90;53.80;;;;;;5098158;28;20021;-70
2023/04/04 07:40:19;;;;;;;1.63;0.95;;;5.80;54.00;;;;;;5096637;28;20446;-69
2023/04/04 07:42:45;;;;;;;1.80;1.00;;;6.00;53.60;;;;;;5079093;28;20028;-69
2023/04/04 07:45:12;;;;;;;2.80;1.00;;;6.00;53.00;;;;;;5080271;28;20032;-69
2023/04/04 07:47:42;;;;;;;3.20;1.30;;;5.80;53.80;;;;;;5080247;28;20020;-69
2023/04/04 07:50:08;;;;;;;1.52;1.10;;;5.80;53.00;;;;;;5080959;28;20085;-70
2023/04/04 07:52:34;;;;;;;4.00;1.10;;;6.00;53.00;;;;;;5079133;28;20460;-69
2023/04/04 07:55:00;;;;;;;3.80;0.88;;;6.50;53.30;;;;;;5077614;28;20073;-65
2023/04/04 07:57:26;;;;;;;7.07;1.40;;;6.90;53.50;;;;;;5094961;28;20031;-67
2023/04/04 07:59:51;;;;;;;3.67;0.98;;;7.40;52.30;;;;;;5076343;28;20024;-66
2023/04/04 08:02:17;;;;;;;3.78;0.82;;;7.70;49.90;;;;;;5094508;28;20024;-65
2023/04/04 08:04:42;;;;;;;1.52;1.00;;;7.60;50.40;;;;;;5093847;28;20418;-62
2023/04/04 08:07:08;;;;;;;4.30;1.05;;;7.20;49.30;;;;;;5075968;28;20024;-62
2023/04/04 08:09:35;;;;;;;11.20;1.60;;;7.10;50.60;;;;;;5093712;28;20055;-62
2023/04/04 08:12:02;;;;;;;2.38;1.08;;;7.20;50.30;;;;;;5076667;28;20032;-62
2023/04/04 08:14:27;;;;;;;3.50;1.20;;;7.10;51.00;;;;;;5075844;28;20028;-62
2023/04/04 08:16:53;;;;;;;2.38;1.15;;;7.50;49.50;;;;;;5093959;28;20081;-63
2023/04/04 08:19:19;;;;;;;2.85;1.20;;;8.10;48.40;;;;;;5093874;28;20028;-62
2023/04/04 08:21:45;;;;;;;3.97;1.60;;;8.40;48.80;;;;;;5094017;28;20032;-63
2023/04/04 08:26:46;;;;;;;3.28;1.13;;;7.70;48.00;;;;;;5053010;28;20400;-78
2023/04/04 08:29:12;;;;;;;4.70;1.13;;;7.10;47.80;;;;;;5054853;28;20025;-78
2023/04/04 08:31:39;;;;;;;2.65;1.35;;;6.50;48.70;;;;;;5054129;28;20030;-78
2023/04/04 08:34:07;;;;;;;5.18;2.17;;;6.20;50.30;;;;;;5054104;28;20029;-79
2023/04/04 08:36:33;;;;;;;3.35;1.40;;;5.90;50.90;;;;;;5069442;28;20483;-80
2023/04/04 08:38:59;;;;;;;3.13;1.30;;;5.50;51.10;;;;;;5070911;28;20426;-78
2023/04/04 08:41:26;;;;;;;2.15;1.30;;;5.20;52.10;;;;;;5053846;28;20028;-79
2023/04/04 08:43:55;;;;;;;2.47;1.30;;;5.10;52.20;;;;;;5053548;28;20032;-79
2023/04/04 08:46:24;;;;;;;5.38;1.33;;;5.70;52.40;;;;;;5071613;28;20388;-78
2023/04/04 08:48:51;;;;;;;1.48;1.17;;;5.60;49.60;;;;;;5073498;28;20384;-78
2023/04/04 08:51:19;;;;;;;2.40;1.30;;;5.30;50.70;;;;;;5057174;28;20025;-78
2023/04/04 08:53:45;;;;;;;1.70;1.23;;;4.90;52.60;;;;;;5073315;28;20028;-78
2023/04/04 08:56:12;;;;;;;3.67;1.63;;;4.90;53.00;;;;;;5039427;28;20029;-78
2023/04/04 08:58:38;;;;;;;2.65;1.45;;;4.80;53.50;;;;;;5057497;28;20052;-78
2023/04/04 09:01:05;;;;;;;2.47;1.42;;;4.60;53.70;;;;;;5072568;28;20114;-78
2023/04/04 09:03:33;;;;;;;2.28;1.30;;;4.40;53.30;;;;;;5073113;28;20411;-78
2023/04/04 09:06:01;;;;;;;1.52;1.13;;;5.10;53.40;;;;;;5039639;28;20040;-77
2023/04/04 09:08:27;;;;;;;4.80;1.27;;;5.90;49.90;;;;;;5057232;28;20055;-78
2023/04/04 09:10:54;;;;;;;3.50;1.75;;;6.90;48.90;;;;;;5058516;28;20100;-78
2023/04/04 09:13:20;;;;;;;2.35;1.55;;;8.00;46.90;;;;;;5039922;28;20028;-79
2023/04/04 09:15:48;;;;;;;3.70;1.20;;;9.00;45.20;;;;;;5075064;28;20033;-79
2023/04/04 09:18:14;;;;;;;3.25;1.20;;;8.80;44.40;;;;;;5075736;28;20116;-78
2023/04/04 09:20:44;;;;;;;5.57;1.20;;;8.40;45.60;;;;;;5077418;28;20025;-79
2023/04/04 09:23:12;;;;;;;3.88;1.25;;;7.90;46.40;;;;;;5062320;28;20025;-79
2023/04/04 09:25:47;;;;;;;3.35;1.20;;;6.90;47.40;;;;;;5061136;28;20068;-80
2023/04/04 09:28:14;;;;;;;1.42;1.10;;;4.90;51.50;;;;;;5061534;28;20044;-78
2023/04/04 09:30:40;;;;;;;5.45;1.27;;;4.90;52.00;;;;;;5075321;28;20025;-79
2023/04/04 09:33:08;;;;;;;4.15;1.40;;;5.30;52.40;;;;;;5076088;28;20057;-79
2023/04/04 09:35:37;;;;;;;5.37;1.63;;;6.10;51.90;;;;;;5045366;28;20116;-81
2023/04/04 09:38:04;;;;;;;3.37;2.03;;;7.30;50.00;;;;;;5079390;28;20025;-80
2023/04/04 09:40:30;;;;;;;9.95;1.50;;;8.10;46.60;;;;;;5062789;28;20025;-80
2023/04/04 09:43:00;;;;;;;1.67;1.08;;;9.00;45.60;;;;;;5044602;28;20627;-81
2023/04/04 09:45:29;;;;;;;4.15;1.23;;;9.70;44.20;;;;;;5060650;28;20052;-80
2023/04/04 09:47:56;;;;;;;2.20;1.27;;;9.60;42.10;;;;;;5079003;28;20033;-80
2023/04/04 09:50:23;;;;;;;4.50;1.40;;;8.50;43.90;;;;;;5077947;28;20097;-79
2023/04/04 09:52:50;;;;;;;2.72;1.50;;;9.20;44.80;;;;;;5060300;28;20372;-80
2023/04/04 09:55:17;;;;;;;5.45;1.15;;;9.00;43.30;;;;;;5073413;28;20496;-79
2023/04/04 09:57:46;;;;;;;2.50;1.60;;;7.80;43.80;;;;;;5055617;28;20049;-80
2023/04/04 10:00:17;;;;;;;4.22;1.48;;;7.90;45.10;;;;;;5056872;28;20380;-80
2023/04/04 10:02:47;;;;;;;2.83;1.27;;;7.20;46.80;;;;;;5056667;28;20048;-79
2023/04/04 10:05:13;;;;;;;2.53;1.83;;;6.40;48.30;;;;;;5038890;28;20036;-79
2023/04/04 10:07:41;;;;;;;2.10;1.45;;;6.20;49.50;;;;;;5056175;28;20040;-80
2023/04/04 10:10:10;;;;;;;3.85;1.40;;;6.20;48.90;;;;;;5056143;28;20039;-79
2023/04/04 10:12:37;;;;;;;3.83;1.35;;;6.00;48.70;;;;;;5056131;28;20021;-79
2023/04/04 10:15:03;;;;;;;3.67;1.58;;;6.80;48.30;;;;;;5071508;28;20518;-79
2023/04/04 10:17:39;;;;;;;6.85;1.85;;;8.10;47.10;;;;;;5056184;28;20040;-80
2023/04/04 10:20:07;;;;;;;2.75;1.15;;;8.70;44.30;;;;;;5056147;28;20085;-80
2023/04/04 10:22:35;;;;;;;1.80;1.13;;;8.90;42.90;;;;;;5056363;28;20024;-80
2023/04/04 10:25:04;;;;;;;3.17;1.23;;;8.90;44.00;;;;;;5055779;28;20392;-80
2023/04/04 10:27:31;;;;;;;1.88;1.52;;;8.70;43.50;;;;;;5056405;28;20029;-80
2023/04/04 10:29:58;;;;;;;1.63;1.27;;;8.30;44.20;;;;;;5038516;28;20033;-80
2023/04/04 10:32:38;;;;;;;2.80;1.70;;;8.00;44.10;;;;;;5038838;28;20029;-80
2023/04/04 10:35:10;;;;;;;3.60;1.55;;;7.40;45.10;;;;;;5038931;28;20469;-80
2023/04/04 10:37:57;;;;;;;3.78;1.77;;;7.00;45.20;;;;;;5055601;28;20031;-80
2023/04/04 10:40:27;;;;;;;5.68;1.70;;;7.30;45.10;;;;;;5071867;28;20033;-81
2023/04/04 10:42:54;;;;;;;;;;;8.60;45.70;;;;;;5057787;28;20021;-81
2023/04/04 10:45:20;;;;;;;2.45;1.60;;;9.50;41.30;;;;;;5058750;28;20245;-81
2023/04/04 10:47:46;;;;;;;1.92;1.65;;;9.40;41.90;;;;;;5059000;28;20052;-81
2023/04/04 10:50:12;;;;;;;3.05;1.30;;;9.50;41.90;;;;;;5059882;28;20032;-80
2023/04/04 10:52:45;;;;;;;2.40;1.55;;;9.30;42.10;;;;;;5075182;28;20456;-82
2023/04/04 10:55:12;;;;;;;4.40;1.38;;;9.70;41.50;;;;;;5043097;28;20029;-81
2023/04/04 10:57:44;;;;;;;3.42;1.80;;;10.10;41.30;;;;;;5062376;28;20021;-82
2023/04/04 11:00:12;;;;;;;2.55;1.55;;;9.20;41.50;;;;;;5059272;28;20098;-80
2023/04/04 11:02:59;;;;;;;1.27;1.10;;;9.50;42.50;;;;;;5061850;28;20029;-81
2023/04/04 11:05:46;;;;;;;3.10;1.40;;;9.80;41.90;;;;;;5076272;28;20064;-81
2023/04/04 11:08:15;;;;;;;2.85;1.67;;;10.30;40.10;;;;;;5081740;28;20498;-82
2023/04/04 11:10:47;;;;;;;1.73;1.63;;;10.20;39.20;;;;;;5089082;28;20062;-82
2023/04/04 11:13:32;;;;;;;2.92;1.60;;;10.60;38.30;;;;;;5061086;28;20033;-79
2023/04/04 11:16:14;;;;;;;3.33;2.17;;;11.30;37.60;;;;;;5036592;28;20029;-78
2023/04/04 11:18:44;;;;;;;3.55;2.10;;;10.30;38.10;;;;;;5037780;28;20029;-78
2023/04/04 11:21:12;;;;;;;2.53;2.00;;;9.60;39.50;;;;;;5040609;28;20025;-83
2023/04/04 11:24:01;;;;;;;3.65;1.55;;;9.00;40.20;;;;;;5041285;28;20060;-81
2023/04/04 11:26:26;;;;;;;2.05;1.75;;;9.80;40.70;;;;;;5060452;28;20057;-79
2023/04/04 11:29:07;;;;;;;2.28;1.42;;;10.10;39.70;;;;;;5057515;28;20048;-79
2023/04/04 11:31:34;;;;;;;1.90;1.50;;;10.60;39.00;;;;;;5056881;28;20032;-80
2023/04/04 11:34:02;;;;;;;3.58;1.73;;;10.90;39.00;;;;;;5057950;28;20021;-80
2023/04/04 11:36:34;;;;;;;4.90;1.80;;;11.40;38.80;;;;;;5036998;28;20032;-78
2023/04/04 11:39:11;;;;;;;3.33;1.40;;;11.30;36.80;;;;;;5036497;28;20074;-79
2023/04/04 11:41:42;;;;;;;3.00;1.67;;;12.20;36.30;;;;;;5055320;28;20513;-80
2023/04/04 11:44:10;;;;;;;2.75;1.40;;;12.40;36.00;;;;;;5054387;28;20037;-80
2023/04/04 11:46:36;;;;;;;2.78;1.60;;;12.20;35.40;;;;;;5037086;28;20456;-80
2023/04/04 11:49:21;;;;;;;4.60;1.77;;;11.70;35.70;;;;;;5054475;28;20025;-80
2023/04/04 11:51:47;;;;;;;2.33;2.13;;;10.40;36.60;;;;;;5054769;28;20037;-80
2023/04/04 11:54:16;;;;;;;5.03;1.52;;;10.60;37.80;;;;;;5070264;28;20124;-80
2023/04/04 11:56:45;;;;;;;3.83;2.05;;;11.70;37.00;;;;;;5054570;28;20029;-81
2023/04/04 11:59:11;;;;;;;2.53;1.60;;;12.60;36.20;;;;;;5054796;28;20029;-81
2023/04/04 12:01:39;;;;;;;3.25;1.65;;;13.30;34.80;;;;;;5055177;28;20108;-80
2023/04/04 12:04:05;;;;;;;1.83;1.30;;;13.00;34.20;;;;;;5054219;28;20033;-80
2023/04/04 12:06:36;;;;;;;1.48;1.35;;;12.00;34.60;;;;;;5069851;28;20116;-80
2023/04/04 12:09:03;;;;;;;1.67;1.40;;;13.10;33.90;;;;;;5036831;28;20373;-79
2023/04/04 12:11:32;;;;;;;3.60;1.58;;;14.40;32.60;;;;;;5069355;28;20017;-80
2023/04/04 12:13:59;;;;;;;1.73;1.60;;;14.80;31.90;;;;;;5069642;28;20029;-80
2023/04/04 12:16:27;;;;;;;1.70;1.50;;;14.20;31.70;;;;;;5054040;28;20032;-81
2023/04/04 12:18:52;;;;;;;4.82;1.65;;;13.60;31.70;;;;;;5054070;28;20512;-79
2023/04/04 12:21:19;;;;;;;4.00;1.70;;;12.00;32.90;;;;;;5054602;28;20029;-80
2023/04/04 12:23:47;;;;;;;3.10;1.65;;;12.80;34.50;;;;;;5035996;28;20072;-80
2023/04/04 12:26:14;;;;;;;4.28;1.60;;;13.60;33.70;;;;;;5054091;28;20052;-78
2023/04/04 12:28:44;;;;;;;4.55;1.60;;;14.60;33.40;;;;;;5036098;28;20060;-81
2023/04/04 12:31:10;;;;;;;2.67;1.63;;;14.30;31.80;;;;;;5054475;28;20021;-79
2023/04/04 12:33:36;;;;;;;3.28;1.35;;;14.00;32.00;;;;;;5054176;28;20017;-80
2023/04/04 12:36:04;;;;;;;3.25;1.67;;;14.20;31.80;;;;;;5036422;28;20531;-79
2023/04/04 12:38:30;;;;;;;3.03;1.70;;;13.80;32.00;;;;;;5069992;28;20029;-79
2023/04/04 12:40:56;;;;;;;2.08;1.60;;;13.10;32.60;;;;;;5053748;28;20476;-80
2023/04/04 12:43:25;;;;;;;3.30;1.75;;;13.60;32.80;;;;;;5054031;28;20036;-81
2023/04/04 12:45:55;;;;;;;2.58;1.60;;;13.20;32.50;;;;;;5073418;28;20033;-82
2023/04/04 12:48:26;;;;;;;4.88;1.58;;;13.10;33.20;;;;;;5039074;28;20072;-82
2023/04/04 12:50:53;;;;;;;2.85;1.50;;;14.10;31.70;;;;;;5038296;28;20127;-82
2023/04/04 12:53:24;;;;;;;7.78;1.88;;;14.60;31.50;;;;;;5079654;28;20072;-82
2023/04/04 12:55:51;;;;;;;3.17;1.55;;;14.30;29.90;;;;;;5062152;28;20029;-82
2023/04/04 12:58:21;;;;;;;3.15;1.77;;;13.70;30.80;;;;;;5062132;28;20021;-80